createdAt,value
2023-04-14T00:00:51.142Z,4.70
2023-04-14T00:03:18.002Z,3.15
2023-04-14T00:05:44.508Z,3.45
2023-04-14T00:08:10.834Z,3.78
2023-04-14T00:10:37.074Z,5.50
2023-04-14T00:13:03.334Z,5.10
2023-04-14T00:15:29.646Z,3.67
2023-04-14T00:17:56.117Z,3.00
2023-04-14T00:20:22.380Z,3.30
2023-04-14T00:22:48.731Z,3.50
2023-04-14T00:25:15.041Z,3.40
2023-04-14T00:27:41.360Z,3.90
2023-04-14T00:30:07.896Z,4.53
2023-04-14T00:32:34.277Z,4.57
2023-04-14T00:35:03.208Z,3.60
2023-04-14T00:37:30.508Z,4.75
2023-04-14T00:39:57.209Z,4.53
2023-04-14T00:42:23.694Z,3.63
2023-04-14T00:44:49.986Z,2.88
2023-04-14T00:47:16.321Z,3.35
2023-04-14T00:49:42.648Z,3.35
2023-04-14T00:52:09.316Z,2.85
2023-04-14T00:54:37.689Z,4.50
2023-04-14T00:57:04.758Z,4.10
2023-04-14T00:59:31.298Z,5.43
2023-04-14T01:01:58.209Z,3.67
2023-04-14T01:04:29.267Z,5.15
2023-04-14T01:07:03.307Z,3.90
2023-04-14T01:09:29.770Z,4.38
2023-04-14T01:12:22.159Z,4.10
2023-04-14T01:14:52.027Z,2.88
2023-04-14T01:17:21.069Z,4.13
2023-04-14T01:19:47.342Z,3.63
2023-04-14T01:22:14.863Z,2.28
2023-04-14T01:24:41.139Z,3.58
2023-04-14T01:27:30.469Z,3.90
2023-04-14T01:29:59.749Z,3.38
2023-04-14T01:32:27.199Z,4.93
2023-04-14T01:35:03.801Z,3.58
2023-04-14T01:40:07.941Z,3.35
2023-04-14T01:42:36.748Z,3.28
2023-04-14T01:45:23.575Z,4.78
2023-04-14T01:47:50.306Z,4.00
2023-04-14T01:50:17.042Z,3.83
2023-04-14T01:52:44.456Z,3.00
2023-04-14T01:55:11.633Z,2.95
2023-04-14T01:57:38.412Z,3.30
2023-04-14T02:00:05.942Z,2.03
2023-04-14T02:02:33.351Z,4.07
2023-04-14T02:05:00.415Z,4.70
2023-04-14T02:07:27.501Z,3.72
2023-04-14T02:09:54.884Z,2.45
2023-04-14T02:12:23.489Z,3.22
2023-04-14T02:14:51.029Z,2.55
2023-04-14T02:17:19.273Z,3.42
2023-04-14T02:19:47.332Z,4.18
2023-04-14T02:22:13.771Z,4.70
2023-04-14T02:24:40.167Z,2.78
2023-04-14T02:27:32.878Z,5.28
2023-04-14T02:29:59.859Z,2.72
2023-04-14T02:32:29.079Z,3.70
2023-04-14T02:35:12.093Z,2.60
2023-04-14T02:37:40.688Z,5.40
2023-04-14T02:40:12.849Z,3.92
2023-04-14T02:42:41.263Z,3.25
2023-04-14T02:45:12.008Z,3.42
2023-04-14T02:47:41.018Z,2.85
2023-04-14T02:50:10.915Z,3.30
2023-04-14T02:52:38.978Z,3.35
2023-04-14T02:55:06.203Z,3.85
2023-04-14T02:57:33.222Z,4.95
2023-04-14T03:00:00.337Z,2.40
2023-04-14T03:02:27.574Z,2.55
2023-04-14T03:04:54.034Z,3.95
2023-04-14T03:07:21.741Z,3.42
2023-04-14T03:09:50.352Z,2.80
2023-04-14T03:12:17.587Z,3.80
2023-04-14T03:14:44.331Z,6.55
2023-04-14T03:17:14.685Z,4.32
2023-04-14T03:19:42.290Z,2.40
2023-04-14T03:22:10.489Z,2.90
2023-04-14T03:24:37.551Z,4.60
2023-04-14T03:27:08.803Z,3.38
2023-04-14T03:29:37.867Z,3.30
2023-04-14T03:32:06.804Z,3.17
2023-04-14T03:34:33.905Z,3.58
2023-04-14T03:37:04.331Z,4.22
2023-04-14T03:39:32.796Z,2.40
2023-04-14T03:41:59.764Z,4.60
2023-04-14T03:44:27.504Z,2.35
2023-04-14T03:46:54.619Z,3.05
2023-04-14T03:49:23.673Z,5.30
2023-04-14T03:51:53.491Z,3.30
2023-04-14T03:54:22.916Z,4.72
2023-04-14T03:56:49.586Z,2.70
2023-04-14T03:59:17.026Z,2.72
2023-04-14T04:01:44.324Z,4.00
2023-04-14T04:04:11.518Z,2.72
2023-04-14T04:06:40.195Z,3.55
2023-04-14T04:09:07.306Z,3.42
2023-04-14T04:11:34.409Z,4.30
2023-04-14T04:14:03.073Z,3.35
2023-04-14T04:16:31.085Z,2.97
2023-04-14T04:18:59.003Z,2.63
2023-04-14T04:21:27.423Z,3.85
2023-04-14T04:23:55.887Z,3.25
2023-04-14T04:26:25.181Z,3.83
2023-04-14T04:28:52.437Z,4.90
2023-04-14T04:31:19.059Z,2.55
2023-04-14T04:33:45.927Z,3.30
2023-04-14T04:36:13.011Z,4.38
2023-04-14T04:38:39.480Z,2.42
2023-04-14T04:41:06.068Z,3.33
2023-04-14T04:43:32.448Z,5.10
2023-04-14T04:45:58.759Z,3.90
2023-04-14T04:48:25.308Z,2.67
2023-04-14T04:50:51.658Z,7.28
2023-04-14T04:53:18.061Z,3.42
2023-04-14T04:55:44.378Z,3.83
2023-04-14T04:58:11.274Z,3.35
2023-04-14T05:00:37.607Z,3.72
2023-04-14T05:03:04.027Z,5.28
2023-04-14T05:05:30.617Z,4.53
2023-04-14T05:07:56.853Z,3.80
2023-04-14T05:10:23.714Z,3.63
2023-04-14T05:12:50.199Z,3.45
2023-04-14T05:15:16.668Z,3.97
2023-04-14T05:17:44.227Z,3.00
2023-04-14T05:20:10.833Z,4.00
2023-04-14T05:22:37.120Z,4.80
2023-04-14T05:25:04.012Z,4.05
2023-04-14T05:27:30.390Z,4.25
2023-04-14T05:29:56.752Z,2.67
2023-04-14T05:32:23.260Z,3.38
2023-04-14T05:34:49.692Z,5.03
2023-04-14T05:37:16.887Z,4.60
2023-04-14T05:39:43.196Z,7.45
2023-04-14T05:42:09.551Z,9.43
2023-04-14T05:44:35.996Z,5.65
2023-04-14T05:47:02.561Z,5.25
2023-04-14T05:49:28.986Z,6.90
2023-04-14T05:51:56.488Z,7.03
2023-04-14T05:54:22.891Z,6.15
2023-04-14T05:56:49.300Z,4.63
2023-04-14T05:59:17.098Z,7.40
2023-04-14T06:01:43.504Z,6.15
2023-04-14T06:04:10.859Z,9.13
2023-04-14T06:06:37.536Z,4.55
2023-04-14T06:09:03.929Z,4.28
2023-04-14T06:11:30.545Z,6.78
2023-04-14T06:13:56.815Z,5.75
2023-04-14T06:16:23.189Z,10.80
2023-04-14T06:18:49.650Z,8.85
2023-04-14T06:21:16.027Z,11.27
2023-04-14T06:23:42.306Z,10.10
2023-04-14T06:26:08.733Z,11.85
2023-04-14T06:28:35.028Z,14.18
2023-04-14T06:31:01.362Z,12.30
2023-04-14T06:33:27.637Z,12.73
2023-04-14T06:35:54.828Z,10.52
2023-04-14T06:38:21.235Z,10.10
2023-04-14T06:40:47.519Z,12.02
2023-04-14T06:43:14.925Z,6.35
2023-04-14T06:45:41.672Z,8.20
2023-04-14T06:48:08.224Z,6.57
2023-04-14T06:50:34.581Z,12.48
2023-04-14T06:53:00.861Z,7.65
2023-04-14T06:55:27.279Z,12.75
2023-04-14T06:57:53.608Z,10.80
2023-04-14T07:00:20.181Z,9.05
2023-04-14T07:02:46.556Z,10.90
2023-04-14T07:05:13.590Z,12.00
2023-04-14T07:07:40.449Z,9.48
2023-04-14T07:10:07.085Z,9.52
2023-04-14T07:12:33.567Z,9.35
2023-04-14T07:14:59.861Z,10.75
2023-04-14T07:17:27.410Z,14.68
2023-04-14T07:19:53.777Z,7.15
2023-04-14T07:22:20.095Z,12.20
2023-04-14T07:24:46.587Z,10.93
2023-04-14T07:27:15.237Z,9.68
2023-04-14T07:29:42.480Z,12.35
2023-04-14T07:32:08.800Z,12.60
2023-04-14T07:34:35.238Z,10.05
2023-04-14T07:37:01.569Z,10.02
2023-04-14T07:39:27.874Z,8.35
2023-04-14T07:41:54.121Z,7.13
2023-04-14T07:44:20.511Z,12.32
2023-04-14T07:46:46.836Z,8.52
2023-04-14T07:49:13.095Z,10.40
2023-04-14T07:51:39.436Z,8.40
2023-04-14T07:54:06.179Z,6.82
2023-04-14T07:56:32.671Z,10.38
2023-04-14T07:58:59.289Z,6.88
2023-04-14T08:01:25.827Z,7.13
2023-04-14T08:03:52.294Z,6.43
2023-04-14T08:06:19.101Z,5.82
2023-04-14T08:08:45.511Z,5.25
2023-04-14T08:11:11.850Z,6.15
2023-04-14T08:13:38.099Z,7.18
2023-04-14T08:16:04.611Z,7.72
2023-04-14T08:18:31.239Z,5.30
2023-04-14T08:20:57.547Z,7.20
2023-04-14T08:23:24.170Z,5.18
2023-04-14T08:25:50.453Z,5.53
2023-04-14T08:28:17.173Z,5.60
2023-04-14T08:30:43.551Z,5.55
2023-04-14T08:33:09.867Z,4.88
2023-04-14T08:35:41.992Z,6.93
2023-04-14T08:38:09.298Z,5.97
2023-04-14T08:40:39.791Z,6.97
2023-04-14T08:43:06.592Z,5.25
2023-04-14T08:45:33.276Z,8.98
2023-04-14T08:48:00.803Z,3.92
2023-04-14T08:50:30.322Z,6.03
2023-04-14T08:52:58.677Z,8.25
2023-04-14T08:55:25.292Z,5.00
2023-04-14T08:57:52.059Z,4.43
2023-04-14T09:00:19.402Z,4.50
2023-04-14T09:02:47.017Z,5.15
2023-04-14T09:05:13.821Z,4.13
2023-04-14T09:07:40.614Z,4.35
2023-04-14T09:10:07.468Z,4.47
2023-04-14T09:12:33.787Z,5.32
2023-04-14T09:15:00.137Z,3.90
2023-04-14T09:17:27.542Z,5.57
2023-04-14T09:20:35.498Z,5.13
2023-04-14T09:22:40.616Z,5.90
2023-04-14T09:25:07.647Z,4.60
2023-04-14T09:27:34.041Z,4.13
2023-04-14T09:30:00.721Z,5.57
2023-04-14T09:32:27.183Z,5.30
2023-04-14T09:34:55.639Z,4.10
2023-04-14T09:37:24.043Z,4.88
2023-04-14T09:39:51.269Z,6.50
2023-04-14T09:42:18.480Z,4.30
2023-04-14T09:44:52.596Z,5.80
2023-04-14T09:47:20.236Z,4.80
2023-04-14T09:49:57.521Z,4.22
2023-04-14T09:52:35.216Z,3.97
2023-04-14T09:55:01.740Z,3.38
2023-04-14T09:57:28.791Z,6.30
2023-04-14T09:59:55.350Z,4.05
2023-04-14T10:02:21.751Z,3.83
2023-04-14T10:05:03.322Z,5.65
2023-04-14T10:07:29.651Z,3.75
2023-04-14T10:09:56.158Z,5.93
2023-04-14T10:12:22.632Z,4.55
2023-04-14T10:14:48.933Z,3.08
2023-04-14T10:17:15.388Z,3.30
2023-04-14T10:19:42.073Z,3.63
2023-04-14T10:22:08.479Z,3.67
2023-04-14T10:24:34.836Z,4.97
2023-04-14T10:27:02.908Z,7.20
2023-04-14T10:29:29.617Z,2.20
2023-04-14T10:32:05.288Z,3.22
2023-04-14T10:34:33.008Z,2.90
2023-04-14T10:37:13.000Z,3.83
2023-04-14T10:39:39.642Z,4.82
2023-04-14T10:42:05.983Z,3.00
2023-04-14T10:44:33.004Z,4.78
2023-04-14T10:47:02.007Z,2.63
2023-04-14T10:49:31.380Z,5.07
2023-04-14T10:51:58.810Z,4.35
2023-04-14T10:54:25.121Z,4.03
2023-04-14T10:57:11.175Z,4.70
2023-04-14T10:59:39.996Z,3.60
2023-04-14T11:02:21.639Z,6.10
2023-04-14T11:05:14.131Z,4.18
2023-04-14T11:07:44.577Z,2.25
2023-04-14T11:10:16.995Z,3.03
2023-04-14T11:12:43.767Z,2.67
2023-04-14T11:15:10.560Z,4.10
2023-04-14T11:17:40.417Z,2.90
2023-04-14T11:20:17.154Z,2.90
2023-04-14T11:22:45.897Z,3.63
2023-04-14T11:25:13.442Z,3.35
2023-04-14T11:27:40.084Z,2.20
2023-04-14T11:30:13.084Z,3.35
2023-04-14T11:32:47.800Z,4.32
2023-04-14T11:35:14.858Z,4.00
2023-04-14T11:37:41.330Z,2.63
2023-04-14T11:40:09.406Z,3.25
2023-04-14T11:42:35.698Z,3.67
2023-04-14T11:45:05.596Z,4.03
2023-04-14T11:47:32.062Z,3.80
2023-04-14T11:50:01.352Z,5.13
2023-04-14T11:52:27.753Z,3.97
2023-04-14T11:54:54.079Z,3.22
2023-04-14T11:57:20.505Z,4.22
2023-04-14T11:59:47.430Z,4.72
2023-04-14T12:02:20.840Z,2.17
2023-04-14T12:04:50.191Z,3.97
2023-04-14T12:07:18.036Z,2.45
2023-04-14T12:09:44.950Z,2.47
2023-04-14T12:12:12.227Z,3.92
2023-04-14T12:14:39.741Z,2.28
2023-04-14T12:17:06.958Z,3.22
2023-04-14T12:19:34.250Z,2.40
2023-04-14T12:22:00.555Z,3.83
2023-04-14T12:24:39.074Z,2.20
2023-04-14T12:27:06.401Z,3.17
2023-04-14T12:29:38.968Z,2.55
2023-04-14T12:32:14.968Z,2.13
2023-04-14T12:34:41.572Z,3.20
2023-04-14T12:37:08.661Z,2.40
2023-04-14T12:39:57.822Z,2.92
2023-04-14T12:42:28.027Z,1.55
2023-04-14T12:44:54.423Z,3.22
2023-04-14T12:47:31.080Z,3.03
2023-04-14T12:49:58.489Z,3.15
2023-04-14T12:52:40.688Z,2.47
2023-04-14T12:55:07.785Z,4.25
2023-04-14T12:57:34.549Z,2.78
2023-04-14T13:00:01.930Z,2.00
2023-04-14T13:04:56.630Z,3.50
2023-04-14T13:07:23.120Z,3.25
2023-04-14T13:09:49.972Z,3.30
2023-04-14T13:12:16.367Z,4.47
2023-04-14T13:14:42.649Z,3.40
2023-04-14T13:17:08.989Z,4.68
2023-04-14T13:19:35.624Z,3.22
2023-04-14T13:22:01.942Z,2.65
2023-04-14T13:24:28.297Z,2.55
2023-04-14T13:26:54.545Z,3.22
2023-04-14T13:29:20.820Z,2.75
2023-04-14T13:31:47.326Z,3.55
2023-04-14T13:34:13.744Z,4.82
2023-04-14T13:36:40.399Z,2.38
2023-04-14T13:39:06.816Z,3.25
2023-04-14T13:41:33.092Z,2.25
2023-04-14T13:43:59.388Z,3.58
2023-04-14T13:46:25.693Z,3.25
2023-04-14T13:48:52.377Z,2.92
2023-04-14T13:51:18.713Z,2.65
2023-04-14T13:53:45.740Z,3.13
2023-04-14T13:56:11.988Z,3.17
2023-04-14T13:58:38.558Z,2.72
2023-04-14T14:01:12.029Z,2.13
2023-04-14T14:03:39.815Z,2.15
2023-04-14T14:06:07.359Z,2.00
2023-04-14T14:08:37.620Z,2.92
2023-04-14T14:11:07.189Z,2.10
2023-04-14T14:13:38.486Z,3.78
2023-04-14T14:16:06.695Z,3.15
2023-04-14T14:18:33.513Z,3.60
2023-04-14T14:20:59.911Z,4.03
2023-04-14T14:23:26.323Z,4.28
2023-04-14T14:25:53.905Z,3.08
2023-04-14T14:28:22.059Z,4.22
2023-04-14T14:30:48.433Z,5.65
2023-04-14T14:33:14.740Z,4.45
2023-04-14T14:35:41.113Z,3.97
2023-04-14T14:38:07.402Z,4.95
2023-04-14T14:40:33.700Z,4.80
2023-04-14T14:43:00.245Z,3.55
2023-04-14T14:45:30.974Z,3.97
2023-04-14T14:47:57.947Z,5.80
2023-04-14T14:50:24.275Z,3.47
2023-04-14T14:52:50.642Z,4.45
2023-04-14T14:55:17.036Z,4.25
2023-04-14T14:57:43.332Z,5.22
2023-04-14T15:00:10.957Z,4.25
2023-04-14T15:02:38.853Z,2.42
2023-04-14T15:05:06.042Z,3.90
2023-04-14T15:07:32.367Z,2.58
2023-04-14T15:09:58.685Z,1.52
2023-04-14T15:12:24.992Z,3.80
2023-04-14T15:14:51.247Z,4.10
2023-04-14T15:17:18.167Z,2.58
2023-04-14T15:19:44.811Z,3.28
2023-04-14T15:22:11.385Z,4.00
2023-04-14T15:24:37.718Z,3.75
2023-04-14T15:27:04.029Z,5.25
2023-04-14T15:29:31.286Z,2.58
2023-04-14T15:31:57.659Z,3.15
2023-04-14T15:34:24.037Z,4.03
2023-04-14T15:36:50.348Z,2.90
2023-04-14T15:39:16.640Z,2.25
2023-04-14T15:41:43.330Z,4.00
2023-04-14T15:44:09.810Z,3.97
2023-04-14T15:46:36.109Z,3.67
2023-04-14T15:49:02.357Z,3.70
2023-04-14T15:51:28.723Z,3.83
2023-04-14T15:53:55.309Z,5.90
2023-04-14T15:56:23.267Z,3.53
2023-04-14T15:58:49.942Z,4.55
2023-04-14T16:01:16.405Z,3.15
2023-04-14T16:03:42.831Z,4.38
2023-04-14T16:06:09.476Z,5.78
2023-04-14T16:08:36.361Z,4.15
2023-04-14T16:11:02.677Z,5.50
2023-04-14T16:13:29.121Z,4.55
2023-04-14T16:15:55.526Z,5.47
2023-04-14T16:18:21.897Z,3.92
2023-04-14T16:20:50.250Z,5.28
2023-04-14T16:23:16.776Z,4.05
2023-04-14T16:25:47.333Z,3.95
2023-04-14T16:28:13.592Z,4.10
2023-04-14T16:30:39.867Z,6.15
2023-04-14T16:33:06.848Z,3.50
2023-04-14T16:35:34.149Z,4.88
2023-04-14T16:38:00.582Z,5.97
2023-04-14T16:40:27.446Z,4.15
2023-04-14T16:42:53.693Z,3.55
2023-04-14T16:45:20.790Z,2.75
2023-04-14T16:47:47.308Z,3.30
2023-04-14T16:50:13.674Z,3.53
2023-04-14T16:52:40.706Z,3.72
2023-04-14T16:55:07.238Z,3.05
2023-04-14T16:57:33.616Z,7.05
2023-04-14T17:00:00.021Z,4.80
2023-04-14T17:02:26.637Z,5.90
2023-04-14T17:04:53.106Z,5.00
2023-04-14T17:07:19.649Z,4.00
2023-04-14T17:09:47.027Z,5.15
2023-04-14T17:12:13.414Z,4.55
2023-04-14T17:14:39.716Z,4.38
2023-04-14T17:17:06.269Z,6.30
2023-04-14T17:19:32.972Z,5.35
2023-04-14T17:21:59.567Z,5.57
2023-04-14T17:24:26.347Z,6.95
2023-04-14T17:26:52.997Z,5.72
2023-04-14T17:29:19.291Z,3.35
2023-04-14T17:31:46.118Z,4.78
2023-04-14T17:34:12.521Z,7.30
2023-04-14T17:36:39.403Z,7.65
2023-04-14T17:39:06.761Z,9.15
2023-04-14T17:41:33.389Z,7.05
2023-04-14T17:44:00.027Z,7.90
2023-04-14T17:46:33.453Z,9.57
2023-04-14T17:49:01.482Z,10.07
2023-04-14T17:51:29.153Z,12.82
2023-04-14T17:53:55.721Z,10.27
2023-04-14T17:56:22.431Z,9.75
2023-04-14T17:58:48.801Z,14.50
2023-04-14T18:01:15.270Z,12.30
2023-04-14T18:03:42.050Z,8.25
2023-04-14T18:06:09.297Z,7.53
2023-04-14T18:08:35.613Z,15.30
2023-04-14T18:11:02.020Z,14.15
2023-04-14T18:13:28.559Z,14.68
2023-04-14T18:15:55.010Z,15.35
2023-04-14T18:18:21.508Z,13.00
2023-04-14T18:20:52.129Z,13.05
2023-04-14T18:23:19.020Z,13.50
2023-04-14T18:28:14.738Z,10.90
2023-04-14T18:30:42.366Z,11.15
2023-04-14T18:33:08.883Z,12.38
2023-04-14T18:35:35.261Z,9.63
2023-04-14T18:38:01.757Z,13.15
2023-04-14T18:40:28.079Z,15.10
2023-04-14T18:42:54.695Z,10.85
2023-04-14T18:45:21.097Z,12.23
2023-04-14T18:47:47.503Z,10.20
2023-04-14T18:50:13.844Z,13.98
2023-04-14T18:52:40.249Z,12.00
2023-04-14T18:55:07.075Z,8.80
2023-04-14T18:57:33.404Z,11.02
2023-04-14T18:59:59.929Z,12.65
2023-04-14T19:02:26.439Z,7.35
2023-04-14T19:04:53.196Z,10.60
2023-04-14T19:07:19.588Z,5.70
2023-04-14T19:09:46.001Z,10.68
2023-04-14T19:12:21.643Z,7.05
2023-04-14T19:14:51.618Z,8.35
2023-04-14T19:17:17.940Z,9.43
2023-04-14T19:19:44.197Z,7.22
2023-04-14T19:22:10.461Z,6.07
2023-04-14T19:24:37.157Z,3.92
2023-04-14T19:27:04.643Z,4.88
2023-04-14T19:29:30.944Z,4.07
2023-04-14T19:31:57.345Z,6.43
2023-04-14T19:34:23.794Z,6.40
2023-04-14T19:36:50.484Z,6.00
2023-04-14T19:39:16.780Z,3.83
2023-04-14T19:41:43.172Z,8.10
2023-04-14T19:44:10.158Z,6.43
2023-04-14T19:46:37.111Z,9.80
2023-04-14T19:49:03.697Z,5.50
2023-04-14T19:51:30.350Z,3.47
2023-04-14T19:53:57.078Z,4.28
2023-04-14T19:56:23.481Z,5.55
2023-04-14T19:58:51.674Z,4.82
2023-04-14T20:01:18.261Z,4.57
2023-04-14T20:04:06.917Z,3.47
2023-04-14T20:06:30.995Z,3.70
2023-04-14T20:08:57.243Z,5.35
2023-04-14T20:11:27.246Z,4.15
2023-04-14T20:13:53.904Z,4.18
2023-04-14T20:16:20.465Z,2.55
2023-04-14T20:18:47.201Z,6.80
2023-04-14T20:21:17.025Z,5.57
2023-04-14T20:23:43.477Z,5.95
2023-04-14T20:26:13.364Z,5.82
2023-04-14T20:28:39.813Z,3.85
2023-04-14T20:31:06.752Z,3.75
2023-04-14T20:33:33.104Z,3.75
2023-04-14T20:36:01.756Z,5.47
2023-04-14T20:38:29.232Z,6.40
2023-04-14T20:40:55.543Z,3.22
2023-04-14T20:43:22.210Z,5.05
2023-04-14T20:45:49.706Z,4.05
2023-04-14T20:48:16.350Z,3.42
2023-04-14T20:50:44.419Z,3.67
2023-04-14T20:53:10.869Z,3.47
2023-04-14T20:55:37.201Z,2.72
2023-04-14T20:58:03.960Z,3.90
2023-04-14T21:00:31.903Z,3.10
2023-04-14T21:02:59.824Z,3.78
2023-04-14T21:05:26.765Z,4.38
2023-04-14T21:07:53.083Z,3.78
2023-04-14T21:10:19.405Z,2.78
2023-04-14T21:15:26.397Z,3.65
2023-04-14T21:15:53.509Z,3.83
2023-04-14T21:18:19.077Z,2.58
2023-04-14T21:20:45.668Z,4.07
2023-04-14T21:23:11.992Z,3.72
2023-04-14T21:25:38.344Z,3.58
2023-04-14T21:28:04.861Z,3.15
2023-04-14T21:30:31.868Z,3.70
2023-04-14T21:32:58.235Z,2.85
2023-04-14T21:35:25.134Z,4.13
2023-04-14T21:37:51.539Z,3.30
2023-04-14T21:40:17.992Z,3.95
2023-04-14T21:42:44.284Z,3.95
2023-04-14T21:45:10.796Z,2.78
2023-04-14T21:47:37.236Z,2.75
2023-04-14T21:50:03.658Z,3.35
2023-04-14T21:52:29.932Z,4.55
2023-04-14T21:54:56.692Z,2.47
2023-04-14T21:57:43.616Z,4.10
2023-04-14T22:00:13.263Z,2.97
2023-04-14T22:02:39.990Z,3.13
2023-04-14T22:05:06.930Z,4.05
2023-04-14T22:07:33.237Z,4.18
2023-04-14T22:09:59.538Z,3.80
2023-04-14T22:12:26.534Z,4.95
2023-04-14T22:14:53.741Z,4.53
2023-04-14T22:17:20.332Z,3.28
2023-04-14T22:19:46.983Z,3.58
2023-04-14T22:22:13.266Z,3.50
2023-04-14T22:24:39.572Z,4.07
2023-04-14T22:27:06.492Z,3.05
2023-04-14T22:29:32.736Z,2.78
2023-04-14T22:31:59.006Z,4.43
2023-04-14T22:34:25.310Z,3.97
2023-04-14T22:36:51.846Z,5.60
2023-04-14T22:39:18.349Z,3.47
2023-04-14T22:41:46.666Z,3.53
2023-04-14T22:44:13.039Z,3.08
2023-04-14T22:46:39.471Z,4.07
2023-04-14T22:49:05.786Z,2.92
2023-04-14T22:51:32.209Z,3.90
2023-04-14T22:53:58.578Z,4.30
2023-04-14T22:56:24.972Z,3.05
2023-04-14T22:58:51.474Z,3.10
2023-04-14T23:01:22.393Z,3.40
2023-04-14T23:03:51.030Z,4.07
2023-04-14T23:06:19.778Z,2.90
2023-04-14T23:08:52.298Z,4.30
2023-04-14T23:11:21.081Z,3.08
2023-04-14T23:13:48.149Z,2.38
2023-04-14T23:16:16.686Z,2.95
2023-04-14T23:18:43.414Z,3.28
2023-04-14T23:21:09.986Z,3.20
2023-04-14T23:23:36.308Z,4.13
2023-04-14T23:26:02.559Z,2.58
2023-04-14T23:28:28.819Z,2.10
2023-04-14T23:30:55.145Z,2.45
2023-04-14T23:33:21.782Z,4.07
2023-04-14T23:35:48.197Z,3.08
2023-04-14T23:38:15.232Z,3.25
2023-04-14T23:40:41.547Z,5.18
2023-04-14T23:43:08.161Z,4.45
2023-04-14T23:45:37.614Z,4.72
2023-04-14T23:48:05.833Z,2.97
2023-04-14T23:50:58.849Z,4.47
2023-04-14T23:53:19.144Z,2.42
2023-04-14T23:55:45.983Z,4.85
2023-04-14T23:58:12.669Z,3.00
